Currently 57°F in Beaumont, California, USA
57°F
65°F / 53°F
1 mph W
0.00"
Tuesday, January 16, 2018 6:55 PM PST

Beaumont, California Weather Summary
Last 36 Hours

Temperature Winds Hourly Humidity Dewpoint
Time Report Norm Report Norm Max Gusts Precip. Rpt. Norm Rpt. Norm Pressure
1Tue 06:55 PM  56.8°F  52°F  1 mph W  4 mph  3 mph  0.00"  41%  45%  32°F  31°F  30.23"
Tue 06:00 PM  56.5°F  53°F  2 mph W  3 mph  3 mph  0.00"  41%  45%  32°F  31°F  30.22"
Tue 05:00 PM  57.2°F  54°F  2 mph SW  3 mph  3 mph  0.00"  40%  43%  32°F  31°F  30.21"
Tue 04:00 PM  61.0°F  57°F  calm  5 mph  7 mph  0.00"  36%  40%  33°F  32°F  30.22"
Tue 03:00 PM  62.1°F  59°F  1 mph S  6 mph  8 mph  0.00"  34%  38%  32°F  32°F  30.20"
Tue 02:00 PM  63.5°F  59°F  3 mph SW  6 mph  12 mph  0.00"  32%  38%  32°F  32°F  30.20"
Tue 01:00 PM  64.9°F  59°F  1 mph S  6 mph  12 mph  0.00"  30%  38%  32°F  32°F  30.21"
2Tue 12:59 PM  64.9°F  59°F  4 mph S  7 mph  12 mph  ----  29%  38%  31°F  32°F  30.21"
Tue 12:00 PM  63.1°F  58°F  2 mph S  6 mph  8 mph  0.00"  31%  39%  31°F  32°F  30.21"
Tue 11:00 AM  60.6°F  57°F  2 mph SW  6 mph  7 mph  0.00"  33%  40%  30°F  32°F  30.25"
Tue 10:00 AM  59.4°F  55°F  4 mph SE  5 mph  6 mph  0.00"  32%  42%  28°F  32°F  30.23"
Tue 09:00 AM  59.5°F  54°F  3 mph SE  4 mph  5 mph  0.00"  32%  43%  28°F  31°F  30.24"
Tue 08:00 AM  55.8°F  52°F  calm  3 mph  3 mph  0.00"  32%  45%  25°F  30°F  30.23"
3Tue 07:11 AM  53.1°F  49°F  2 mph W  3 mph  3 mph  ----  36%  46%  26°F  28°F  30.22"
Tue 07:00 AM  54.5°F  48°F  1 mph W  3 mph  3 mph  0.00"  33%  46%  25°F  28°F  30.21"
Tue 06:00 AM  55.0°F  49°F  calm  4 mph  3 mph  0.00"  31%  46%  24°F  28°F  30.20"
Tue 05:00 AM  55.2°F  48°F  1 mph W  3 mph  6 mph  0.00"  31%  47%  24°F  28°F  30.19"
Tue 04:00 AM  55.8°F  49°F  2 mph W  4 mph  8 mph  0.00"  32%  47%  25°F  28°F  30.20"
Tue 03:00 AM  53.8°F  49°F  4 mph NW  3 mph  7 mph  0.00"  36%  47%  26°F  29°F  30.21"
Tue 02:00 AM  56.8°F  49°F  2 mph W  4 mph  8 mph  0.00"  30%  48%  24°F  29°F  30.22"
Tue 01:00 AM  55.0°F  49°F  2 mph W  3 mph  8 mph  0.00"  32%  48%  24°F  29°F  30.21"
Tue 12:00 AM  57.7°F  49°F  7 mph NW  3 mph  8 mph  0.00"  28%  49%  23°F  30°F  30.22"
Mon 11:00 PM  55.9°F  50°F  2 mph NW  3 mph  3 mph  0.00"  32%  48%  25°F  30°F  30.21"
Mon 10:00 PM  57.6°F  50°F  1 mph NW  4 mph  3 mph  0.00"  30%  48%  25°F  30°F  30.20"
Mon 09:00 PM  55.9°F  50°F  2 mph NW  3 mph  3 mph  0.00"  31%  48%  24°F  30°F  30.19"
Mon 08:00 PM  56.7°F  51°F  3 mph W  3 mph  12 mph  0.00"  32%  48%  26°F  31°F  30.19"
Mon 07:00 PM  57.7°F  51°F  3 mph N  3 mph  9 mph  0.00"  33%  47%  28°F  31°F  30.18"
Mon 06:00 PM  58.5°F  52°F  1 mph W  3 mph  9 mph  0.00"  33%  47%  28°F  32°F  30.19"
Mon 05:00 PM  59.2°F  54°F  calm  3 mph  9 mph  0.00"  31%  45%  27°F  32°F  30.19"
Mon 04:00 PM  61.3°F  56°F  calm  4 mph  13 mph  0.00"  29%  42%  27°F  33°F  30.17"
Mon 03:00 PM  63.9°F  58°F  3 mph SW  6 mph  9 mph  0.00"  25%  40%  26°F  33°F  30.16"
Mon 02:00 PM  64.0°F  58°F  3 mph W  6 mph  12 mph  0.00"  23%  40%  24°F  33°F  30.16"
Mon 01:00 PM  64.8°F  58°F  4 mph SW  6 mph  15 mph  0.00"  25%  40%  27°F  33°F  30.18"
Mon 12:00 PM  65.5°F  57°F  2 mph S  6 mph  9 mph  0.00"  25%  41%  27°F  33°F  30.19"
Mon 11:00 AM  64.2°F  57°F  3 mph W  6 mph  10 mph  0.00"  24%  42%  25°F  33°F  30.21"
Mon 10:00 AM  63.0°F  55°F  3 mph SW  5 mph  9 mph  0.00"  25%  44%  25°F  32°F  30.23"
Mon 09:00 AM  61.9°F  53°F  1 mph SE  4 mph  3 mph  0.00"  31%  45%  30°F  32°F  30.23"
Mon 08:00 AM  59.5°F  51°F  calm  3 mph  3 mph  0.00"  28%  47%  25°F  31°F  30.21"
Mon 07:00 AM  55.9°F  48°F  3 mph N  3 mph  7 mph  0.00"  28%  49%  22°F  29°F  30.19"

  1. Current weather data. No green row appears if the current weather data is also the high or low for the current day.
  2. High temperature for the current day.
  3. Low temperature for the current day.

The Beaumont, California weather pages are a service of WeatherCurrents. Cherry Valley is located in northern Riverside County, California, a community of the northern part of Beaumont, along the Interstate 10 highway, in the San Gorgonio pass area, between the communities of Calimesa, Banning.
Copyright ©Tue Jan 16 18:56:16 PST 2018  WeatherCurrents. All rights reserved. - Submit questions and comments - Privacy Policy

This page automatically refreshes every 10 minutes.